createdAt,value
2022-12-27T00:01:19.023Z,101527.72
2022-12-27T00:03:45.934Z,101536.31
2022-12-27T00:06:20.272Z,101543.28
2022-12-27T00:08:47.135Z,101544.16
2022-12-27T00:11:16.635Z,101541.56
2022-12-27T00:13:43.256Z,101540.53
2022-12-27T00:16:13.628Z,101550.84
2022-12-27T00:18:40.945Z,101553.31
2022-12-27T00:21:10.189Z,101568.06
2022-12-27T00:23:39.523Z,101562.91
2022-12-27T00:26:13.306Z,101562.06
2022-12-27T00:28:39.807Z,101553.50
2022-12-27T00:31:06.963Z,101558.66
2022-12-27T00:33:35.557Z,101563.09
2022-12-27T00:36:03.712Z,101565.53
2022-12-27T00:38:31.950Z,101572.41
2022-12-27T00:40:59.104Z,101567.06
2022-12-27T00:43:25.601Z,101568.75
2022-12-27T00:45:52.433Z,101564.47
2022-12-27T00:48:18.975Z,101574.78
2022-12-27T00:50:45.805Z,101570.47
2022-12-27T00:53:12.830Z,101577.47
2022-12-27T00:55:41.827Z,101574.13
2022-12-27T00:58:08.278Z,101573.31
2022-12-27T01:00:35.560Z,101575.03
2022-12-27T01:03:02.274Z,101576.69
2022-12-27T01:05:28.818Z,101580.91
2022-12-27T01:07:55.399Z,101579.94
2022-12-27T01:10:21.871Z,101576.44
2022-12-27T01:12:48.303Z,101578.06
2022-12-27T01:15:14.791Z,101582.25
2022-12-27T01:17:41.244Z,101572.72
2022-12-27T01:20:08.339Z,101567.59
2022-12-27T01:22:34.723Z,101572.66
2022-12-27T01:25:01.134Z,101576.16
2022-12-27T01:27:27.784Z,101577.03
2022-12-27T01:29:54.361Z,101577.91
2022-12-27T01:32:21.207Z,101584.75
2022-12-27T01:34:47.679Z,101590.00
2022-12-27T01:37:21.336Z,101592.59
2022-12-27T01:39:47.769Z,101604.78
2022-12-27T01:42:35.286Z,101601.38
2022-12-27T01:45:02.756Z,101599.69
2022-12-27T01:47:45.586Z,101610.97
2022-12-27T01:50:14.920Z,101610.22
2022-12-27T01:52:46.744Z,101612.81
2022-12-27T01:55:16.154Z,101611.97
2022-12-27T01:57:42.631Z,101618.91
2022-12-27T02:00:09.940Z,101625.84
2022-12-27T02:02:37.055Z,101618.06
2022-12-27T02:05:04.036Z,101625.91
2022-12-27T02:08:03.651Z,101617.09
2022-12-27T02:10:31.411Z,101625.81
2022-12-27T02:12:59.459Z,101628.31
2022-12-27T02:15:26.008Z,101628.34
2022-12-27T02:17:52.571Z,101631.75
2022-12-27T02:20:25.550Z,101632.69
2022-12-27T02:23:26.300Z,101633.50
2022-12-27T02:26:17.767Z,101642.97
2022-12-27T02:29:09.293Z,101641.25
2022-12-27T02:31:46.038Z,101637.81
2022-12-27T02:34:28.790Z,101629.94
2022-12-27T02:37:01.062Z,101629.88
2022-12-27T02:39:29.566Z,101630.75
2022-12-27T02:42:15.674Z,101636.03
2022-12-27T02:45:00.833Z,101631.78
2022-12-27T02:47:47.223Z,101632.69
2022-12-27T02:50:33.546Z,101635.28
2022-12-27T02:53:17.038Z,101638.72
2022-12-27T02:56:37.655Z,101637.66
2022-12-27T02:59:12.779Z,101643.69
2022-12-27T03:02:11.662Z,101630.66
2022-12-27T03:05:01.367Z,101640.19
2022-12-27T03:08:02.016Z,101634.25
2022-12-27T03:10:58.933Z,101640.31
2022-12-27T03:14:02.814Z,101641.16
2022-12-27T03:16:43.087Z,101649.00
2022-12-27T03:20:02.311Z,101648.91
2022-12-27T03:22:49.473Z,101648.91
2022-12-27T03:25:28.685Z,101650.66
2022-12-27T03:28:28.508Z,101646.53
2022-12-27T03:31:27.568Z,101663.91
2022-12-27T03:34:04.540Z,101656.16
2022-12-27T03:36:52.623Z,101657.06
2022-12-27T03:39:31.033Z,101658.84
2022-12-27T03:42:35.821Z,101652.03
2022-12-27T03:45:02.467Z,101655.56
2022-12-27T03:47:48.903Z,101648.69
2022-12-27T03:50:25.236Z,101651.19
2022-12-27T03:53:00.204Z,101658.19
2022-12-27T03:55:32.984Z,101649.63
2022-12-27T03:58:00.032Z,101643.53
2022-12-27T04:00:26.541Z,101652.13
2022-12-27T04:02:53.153Z,101654.84
2022-12-27T04:05:19.673Z,101652.31
2022-12-27T04:08:04.725Z,101651.41
2022-12-27T04:10:49.537Z,101660.06
2022-12-27T04:13:34.235Z,101656.69
2022-12-27T04:16:19.068Z,101653.31
2022-12-27T04:19:03.812Z,101647.25
2022-12-27T04:21:48.615Z,101655.81
2022-12-27T04:24:33.411Z,101657.59
2022-12-27T04:27:18.305Z,101657.53
2022-12-27T04:30:03.073Z,101659.28
2022-12-27T04:32:48.113Z,101652.44
2022-12-27T04:35:14.615Z,101649.09
2022-12-27T04:37:41.032Z,101654.25
2022-12-27T04:40:27.583Z,101650.78
2022-12-27T04:43:12.421Z,101650.94
2022-12-27T04:45:57.257Z,101647.50
2022-12-27T04:48:46.171Z,101655.28
2022-12-27T04:51:31.014Z,101646.78
2022-12-27T04:54:15.862Z,101651.13
2022-12-27T04:56:42.276Z,101663.19
2022-12-27T04:59:27.185Z,101668.44
2022-12-27T05:02:06.044Z,101668.41
2022-12-27T05:04:35.400Z,101668.38
2022-12-27T05:07:22.079Z,101675.34
2022-12-27T05:10:07.243Z,101684.00
2022-12-27T05:12:52.091Z,101684.78
2022-12-27T05:15:18.540Z,101690.03
2022-12-27T05:17:45.040Z,101684.03
2022-12-27T05:20:11.608Z,101685.84
2022-12-27T05:22:56.725Z,101686.81
2022-12-27T05:25:35.524Z,101700.75
2022-12-27T05:28:04.665Z,101705.97
2022-12-27T05:30:39.395Z,101709.47
2022-12-27T05:33:06.847Z,101706.00
2022-12-27T05:35:36.140Z,101702.56
2022-12-27T05:38:02.743Z,101711.22
2022-12-27T05:40:29.318Z,101714.66
2022-12-27T05:42:58.921Z,101721.59
2022-12-27T05:45:25.454Z,101714.78
2022-12-27T05:47:51.980Z,101717.41
2022-12-27T05:50:18.779Z,101720.00
2022-12-27T05:52:45.246Z,101721.72
2022-12-27T05:55:12.782Z,101721.75
2022-12-27T05:57:39.359Z,101724.31
2022-12-27T06:00:06.497Z,101726.03
2022-12-27T06:02:33.103Z,101724.34
2022-12-27T06:04:59.648Z,101732.06
2022-12-27T06:07:26.098Z,101723.31
2022-12-27T06:09:52.577Z,101729.31
2022-12-27T06:12:19.024Z,101731.97
2022-12-27T06:14:45.464Z,101737.13
2022-12-27T06:17:11.891Z,101737.97
2022-12-27T06:19:38.349Z,101746.63
2022-12-27T06:22:04.764Z,101739.75
2022-12-27T06:24:31.178Z,101744.06
2022-12-27T06:26:57.593Z,101744.84
2022-12-27T06:29:24.023Z,101749.06
2022-12-27T06:31:50.610Z,101745.66
2022-12-27T06:34:18.174Z,101754.31
2022-12-27T06:36:50.092Z,101755.06
2022-12-27T06:39:17.701Z,101764.47
2022-12-27T06:41:44.356Z,101760.06
2022-12-27T06:44:10.976Z,101752.22
2022-12-27T06:46:38.193Z,101754.69
2022-12-27T06:49:04.871Z,101760.66
2022-12-27T06:51:31.338Z,101766.66
2022-12-27T06:53:57.830Z,101763.09
2022-12-27T06:56:24.361Z,101761.38
2022-12-27T06:58:51.689Z,101763.94
2022-12-27T07:01:26.888Z,101762.16
2022-12-27T07:03:55.849Z,101766.50
2022-12-27T07:06:23.644Z,101768.22
2022-12-27T07:08:51.265Z,101770.75
2022-12-27T07:11:19.763Z,101775.84
2022-12-27T07:13:51.382Z,101769.72
2022-12-27T07:16:20.565Z,101776.66
2022-12-27T07:18:49.794Z,101780.94
2022-12-27T07:21:19.495Z,101786.09
2022-12-27T07:23:46.318Z,101780.16
2022-12-27T07:26:19.160Z,101793.88
2022-12-27T07:28:45.615Z,101792.13
2022-12-27T07:31:17.885Z,101796.41
2022-12-27T07:33:45.139Z,101810.97
2022-12-27T07:36:17.981Z,101813.56
2022-12-27T07:38:45.057Z,101809.41
2022-12-27T07:41:12.891Z,101813.78
2022-12-27T07:43:39.707Z,101802.50
2022-12-27T07:46:08.573Z,101812.91
2022-12-27T07:48:35.630Z,101809.50
2022-12-27T07:51:02.429Z,101818.16
2022-12-27T07:53:28.955Z,101818.94
2022-12-27T07:55:58.590Z,101812.03
2022-12-27T07:58:25.506Z,101818.88
2022-12-27T08:00:52.626Z,101818.00
2022-12-27T08:03:19.622Z,101826.63
2022-12-27T08:05:48.227Z,101834.28
2022-12-27T08:08:17.324Z,101836.00
2022-12-27T08:10:44.107Z,101836.78
2022-12-27T08:13:10.597Z,101835.91
2022-12-27T08:15:38.834Z,101839.38
2022-12-27T08:18:05.426Z,101840.13
2022-12-27T08:20:31.978Z,101842.72
2022-12-27T08:22:58.684Z,101841.84
2022-12-27T08:25:25.542Z,101843.59
2022-12-27T08:27:52.094Z,101853.16
2022-12-27T08:30:18.894Z,101849.75
2022-12-27T08:32:45.383Z,101839.44
2022-12-27T08:35:50.233Z,101839.44
2022-12-27T08:38:01.792Z,101853.44
2022-12-27T08:40:28.270Z,101836.25
2022-12-27T08:42:54.702Z,101842.34
2022-12-27T08:45:21.132Z,101855.28
2022-12-27T08:47:47.547Z,101845.09
2022-12-27T08:50:13.993Z,101847.75
2022-12-27T08:52:40.421Z,101852.13
2022-12-27T08:55:07.147Z,101847.00
2022-12-27T08:57:34.363Z,101846.13
2022-12-27T09:00:00.948Z,101838.34
2022-12-27T09:02:27.464Z,101830.53
2022-12-27T09:04:54.061Z,101841.81
2022-12-27T09:07:20.503Z,101843.75
2022-12-27T09:09:47.516Z,101852.69
2022-12-27T09:12:14.068Z,101851.16
2022-12-27T09:14:40.614Z,101857.34
2022-12-27T09:17:09.681Z,101859.94
2022-12-27T09:19:36.735Z,101860.84
2022-12-27T09:22:03.539Z,101858.31
2022-12-27T09:24:30.067Z,101858.56
2022-12-27T09:26:56.562Z,101863.94
2022-12-27T09:29:23.119Z,101870.78
2022-12-27T09:31:49.622Z,101869.94
2022-12-27T09:34:16.074Z,101873.41
2022-12-27T09:36:42.620Z,101863.16
2022-12-27T09:39:12.222Z,101867.69
2022-12-27T09:45:03.970Z,101869.53
2022-12-27T09:47:45.986Z,101860.97
2022-12-27T09:50:25.882Z,101863.78
2022-12-27T09:53:17.162Z,101860.38
2022-12-27T09:55:48.420Z,101870.06
2022-12-27T09:58:23.065Z,101859.69
2022-12-27T10:00:52.942Z,101863.31
2022-12-27T10:03:25.483Z,101858.06
2022-12-27T10:06:00.287Z,101857.34
2022-12-27T10:08:52.591Z,101845.22
2022-12-27T10:11:57.836Z,101854.91
2022-12-27T10:14:43.223Z,101851.56
2022-12-27T10:17:18.252Z,101857.59
2022-12-27T10:20:24.491Z,101852.50
2022-12-27T10:23:05.861Z,101845.63
2022-12-27T10:25:35.442Z,101848.47
2022-12-27T10:28:13.851Z,101842.50
2022-12-27T10:30:40.463Z,101846.97
2022-12-27T10:33:16.112Z,101851.25
2022-12-27T10:35:42.729Z,101843.56
2022-12-27T10:38:11.499Z,101842.69
2022-12-27T10:40:47.355Z,101851.31
2022-12-27T10:43:24.564Z,101846.97
2022-12-27T10:45:51.195Z,101850.47
2022-12-27T10:48:47.409Z,101853.97
2022-12-27T10:51:16.406Z,101853.19
2022-12-27T10:53:45.819Z,101854.03
2022-12-27T10:56:12.245Z,101855.00
2022-12-27T10:58:44.724Z,101845.44
2022-12-27T11:01:25.437Z,101848.91
2022-12-27T11:03:53.041Z,101848.06
2022-12-27T11:06:21.629Z,101853.59
2022-12-27T11:08:48.821Z,101849.47
2022-12-27T11:11:26.879Z,101845.97
2022-12-27T11:14:10.274Z,101853.91
2022-12-27T11:16:37.435Z,101849.72
2022-12-27T11:19:04.453Z,101856.66
2022-12-27T11:21:31.846Z,101842.81
2022-12-27T11:24:00.888Z,101844.47
2022-12-27T11:26:33.767Z,101845.41
2022-12-27T11:29:01.696Z,101845.44
2022-12-27T11:31:32.787Z,101850.72
2022-12-27T11:34:05.631Z,101845.56
2022-12-27T11:36:37.295Z,101851.59
2022-12-27T11:39:04.712Z,101850.81
2022-12-27T11:41:50.048Z,101852.59
2022-12-27T11:44:28.193Z,101853.63
2022-12-27T11:47:12.234Z,101850.91
2022-12-27T11:50:02.902Z,101851.78
2022-12-27T11:52:51.130Z,101845.81
2022-12-27T11:55:31.070Z,101850.19
2022-12-27T11:58:45.525Z,101851.16
2022-12-27T12:01:17.973Z,101846.84
2022-12-27T12:03:59.240Z,101846.84
2022-12-27T12:06:34.851Z,101835.56
2022-12-27T12:09:04.299Z,101836.44
2022-12-27T12:11:55.166Z,101834.75
2022-12-27T12:14:49.882Z,101837.28
2022-12-27T12:17:23.205Z,101822.59
2022-12-27T12:20:11.532Z,101829.47
2022-12-27T12:22:54.784Z,101815.53
2022-12-27T12:25:46.197Z,101820.72
2022-12-27T12:28:59.766Z,101819.88
2022-12-27T12:32:15.204Z,101816.53
2022-12-27T12:35:14.725Z,101821.81
2022-12-27T12:38:16.701Z,101814.03
2022-12-27T12:41:07.862Z,101816.66
2022-12-27T12:43:49.548Z,101805.34
2022-12-27T12:46:51.329Z,101815.81
2022-12-27T12:49:23.881Z,101813.19
2022-12-27T12:52:29.411Z,101812.31
2022-12-27T12:55:19.856Z,101810.50
2022-12-27T12:57:55.629Z,101795.88
2022-12-27T13:00:25.573Z,101794.94
2022-12-27T13:03:10.507Z,101790.59
2022-12-27T13:05:58.256Z,101781.09
2022-12-27T13:08:52.905Z,101783.72
2022-12-27T13:11:38.002Z,101786.41
2022-12-27T13:14:25.584Z,101779.50
2022-12-27T13:17:04.072Z,101756.91
2022-12-27T13:20:01.287Z,101759.47
2022-12-27T13:22:46.786Z,101752.59
2022-12-27T13:25:19.554Z,101756.94
2022-12-27T13:28:05.759Z,101740.38
2022-12-27T13:31:06.468Z,101730.78
2022-12-27T13:34:06.445Z,101723.00
2022-12-27T13:36:43.733Z,101722.06
2022-12-27T13:39:38.904Z,101720.31
2022-12-27T13:42:51.467Z,101709.13
2022-12-27T13:45:39.076Z,101719.53
2022-12-27T13:48:24.328Z,101729.03
2022-12-27T13:51:04.561Z,101729.16
2022-12-27T13:54:00.471Z,101714.41
2022-12-27T13:59:34.699Z,101713.59
2022-12-27T14:02:10.386Z,101713.69
2022-12-27T14:05:07.594Z,101710.16
2022-12-27T14:08:03.604Z,101710.03
2022-12-27T14:10:43.774Z,101716.94
2022-12-27T14:13:11.994Z,101713.53
2022-12-27T14:16:04.826Z,101704.78
2022-12-27T14:18:34.286Z,101713.38
2022-12-27T14:21:00.682Z,101707.31
2022-12-27T14:23:37.223Z,101713.31
2022-12-27T14:26:40.753Z,101715.84
2022-12-27T14:29:19.366Z,101710.63
2022-12-27T14:32:07.290Z,101714.13
2022-12-27T14:35:12.301Z,101708.91
2022-12-27T14:38:11.750Z,101706.31
2022-12-27T14:40:58.643Z,101701.94
2022-12-27T14:44:00.081Z,101697.66
2022-12-27T14:46:59.743Z,101686.47
2022-12-27T14:49:43.353Z,101679.44
2022-12-27T14:52:37.950Z,101688.94
2022-12-27T14:55:16.546Z,101685.38
2022-12-27T14:58:12.699Z,101688.69
2022-12-27T15:01:24.187Z,101681.72
2022-12-27T15:04:18.946Z,101673.84
2022-12-27T15:07:08.004Z,101678.97
2022-12-27T15:09:46.871Z,101672.84
2022-12-27T15:12:36.960Z,101672.81
2022-12-27T15:15:43.041Z,101672.78
2022-12-27T15:18:15.816Z,101675.38
2022-12-27T15:21:10.278Z,101677.13
2022-12-27T15:24:05.598Z,101679.66
2022-12-27T15:26:40.772Z,101666.72
2022-12-27T15:29:16.576Z,101662.47
2022-12-27T15:31:46.048Z,101661.66
2022-12-27T15:34:31.325Z,101659.09
2022-12-27T15:36:58.284Z,101664.22
2022-12-27T15:39:33.803Z,101656.38
2022-12-27T15:42:19.189Z,101662.44
2022-12-27T15:45:07.440Z,101658.09
2022-12-27T15:47:47.086Z,101658.25
2022-12-27T15:50:26.528Z,101653.97
2022-12-27T15:53:16.482Z,101647.97
2022-12-27T15:56:17.085Z,101649.72
2022-12-27T15:58:43.975Z,101641.13
2022-12-27T16:01:23.625Z,101658.34
2022-12-27T16:03:53.442Z,101650.59
2022-12-27T16:06:35.214Z,101646.44
2022-12-27T16:09:31.091Z,101653.28
2022-12-27T16:12:00.554Z,101649.72
2022-12-27T16:14:31.080Z,101656.72
2022-12-27T16:17:20.763Z,101660.13
2022-12-27T16:20:02.993Z,101647.94
2022-12-27T16:22:42.833Z,101651.41
2022-12-27T16:25:33.630Z,101649.56
2022-12-27T16:28:23.905Z,101646.94
2022-12-27T16:30:52.627Z,101648.66
2022-12-27T16:33:28.374Z,101655.66
2022-12-27T16:36:06.681Z,101645.22
2022-12-27T16:38:34.811Z,101644.34
2022-12-27T16:41:29.771Z,101636.44
2022-12-27T16:44:02.366Z,101647.72
2022-12-27T16:46:52.197Z,101650.31
2022-12-27T16:49:37.145Z,101645.06
2022-12-27T16:52:12.576Z,101650.28
2022-12-27T16:55:00.979Z,101655.38
2022-12-27T16:57:27.358Z,101655.34
2022-12-27T16:59:58.585Z,101644.88
2022-12-27T17:02:33.308Z,101651.69
2022-12-27T17:05:01.118Z,101651.56
2022-12-27T17:07:52.882Z,101661.03
2022-12-27T17:10:28.519Z,101661.84
2022-12-27T17:12:59.697Z,101660.06
2022-12-27T17:15:27.181Z,101647.00
2022-12-27T17:17:59.715Z,101649.56
2022-12-27T17:20:26.355Z,101646.94
2022-12-27T17:22:57.525Z,101650.41
2022-12-27T17:25:44.619Z,101647.72
2022-12-27T17:28:19.387Z,101645.97
2022-12-27T17:31:11.980Z,101639.84
2022-12-27T17:34:19.864Z,101641.59
2022-12-27T17:37:01.110Z,101644.97
2022-12-27T17:39:50.619Z,101638.00
2022-12-27T17:42:48.988Z,101643.97
2022-12-27T17:45:31.010Z,101643.09
2022-12-27T17:48:03.707Z,101640.50
2022-12-27T17:50:31.029Z,101640.44
2022-12-27T17:53:28.461Z,101627.47
2022-12-27T17:56:30.467Z,101630.09
2022-12-27T17:59:06.229Z,101633.50
2022-12-27T18:01:35.888Z,101629.94
2022-12-27T18:04:04.568Z,101627.31
2022-12-27T18:06:31.445Z,101621.16
2022-12-27T18:08:58.147Z,101629.78
2022-12-27T18:11:28.145Z,101626.28
2022-12-27T18:13:58.824Z,101628.91
2022-12-27T18:16:37.542Z,101617.63
2022-12-27T18:19:04.487Z,101616.75
2022-12-27T18:21:31.448Z,101613.28
2022-12-27T18:23:58.275Z,101615.78
2022-12-27T18:26:37.431Z,101612.31
2022-12-27T18:29:05.338Z,101609.72
2022-12-27T18:31:35.838Z,101608.84
2022-12-27T18:34:17.346Z,101593.28
2022-12-27T18:36:50.424Z,101599.31
2022-12-27T18:39:30.154Z,101596.72
2022-12-27T18:41:58.152Z,101589.75
2022-12-27T18:44:29.412Z,101584.56
2022-12-27T18:47:00.324Z,101587.97
2022-12-27T18:49:34.753Z,101584.50
2022-12-27T18:52:10.919Z,101587.88
2022-12-27T18:54:37.555Z,101583.50
2022-12-27T18:57:07.175Z,101584.38
2022-12-27T18:59:36.058Z,101580.03
2022-12-27T19:02:24.075Z,101576.56
2022-12-27T19:05:18.831Z,101578.25
2022-12-27T19:08:02.019Z,101572.16
2022-12-27T19:10:30.867Z,101572.94
2022-12-27T19:12:57.619Z,101577.25
2022-12-27T19:15:24.913Z,101573.78
2022-12-27T19:17:55.151Z,101561.66
2022-12-27T19:20:32.345Z,101563.34
2022-12-27T19:23:05.483Z,101559.03
2022-12-27T19:25:35.001Z,101549.50
2022-12-27T19:28:10.461Z,101548.59
2022-12-27T19:31:03.959Z,101549.47
2022-12-27T19:33:34.739Z,101542.59
2022-12-27T19:36:03.660Z,101529.59
2022-12-27T19:38:33.299Z,101532.97
2022-12-27T19:41:03.926Z,101542.47
2022-12-27T19:43:37.627Z,101532.97
2022-12-27T19:46:04.383Z,101537.28
2022-12-27T19:48:30.948Z,101532.97
2022-12-27T19:50:58.126Z,101506.97
2022-12-27T19:53:30.961Z,101512.97
2022-12-27T19:55:58.331Z,101503.41
2022-12-27T19:58:29.652Z,101517.25
2022-12-27T20:00:57.422Z,101511.16
2022-12-27T20:03:24.281Z,101511.91
2022-12-27T20:06:11.796Z,101511.88
2022-12-27T20:08:43.927Z,101499.69
2022-12-27T20:11:16.173Z,101504.09
2022-12-27T20:13:42.652Z,101503.19
2022-12-27T20:16:14.570Z,101495.38
2022-12-27T20:18:42.087Z,101494.50
2022-12-27T20:21:13.258Z,101494.44
2022-12-27T20:23:39.828Z,101479.75
2022-12-27T20:26:06.403Z,101484.03
2022-12-27T20:28:33.565Z,101476.19
2022-12-27T20:31:04.938Z,101477.84
2022-12-27T20:33:31.417Z,101476.94
2022-12-27T20:35:58.522Z,101469.91
2022-12-27T20:38:26.212Z,101470.78
2022-12-27T20:40:52.883Z,101463.84
2022-12-27T20:43:19.523Z,101462.91
2022-12-27T20:45:46.484Z,101462.91
2022-12-27T20:48:13.365Z,101462.88
2022-12-27T20:50:40.931Z,101461.16
2022-12-27T20:53:07.685Z,101452.47
2022-12-27T20:55:34.374Z,101449.88
2022-12-27T20:58:01.525Z,101442.09
2022-12-27T21:00:28.366Z,101448.97
2022-12-27T21:02:54.944Z,101440.34
2022-12-27T21:05:21.533Z,101439.53
2022-12-27T21:07:48.024Z,101442.09
2022-12-27T21:10:14.965Z,101439.53
2022-12-27T21:12:41.408Z,101430.88
2022-12-27T21:15:08.620Z,101427.41
2022-12-27T21:17:35.268Z,101428.25
2022-12-27T21:20:01.833Z,101422.22
2022-12-27T21:22:28.304Z,101429.06
2022-12-27T21:24:54.729Z,101420.47
2022-12-27T21:27:21.198Z,101422.22
2022-12-27T21:29:47.658Z,101420.50
2022-12-27T21:32:14.145Z,101426.56
2022-12-27T21:34:41.220Z,101419.66
2022-12-27T21:37:13.073Z,101413.63
2022-12-27T21:39:40.155Z,101417.06
2022-12-27T21:42:06.728Z,101409.28
2022-12-27T21:44:35.341Z,101396.34
2022-12-27T21:47:01.947Z,101398.09
2022-12-27T21:49:28.400Z,101385.97
2022-12-27T21:51:55.731Z,101389.47
2022-12-27T21:54:22.219Z,101379.09
2022-12-27T21:56:48.816Z,101377.34
2022-12-27T21:59:15.325Z,101375.63
2022-12-27T22:01:52.099Z,101381.69
2022-12-27T22:04:20.956Z,101374.78
2022-12-27T22:06:48.120Z,101369.59
2022-12-27T22:09:15.632Z,101363.53
2022-12-27T22:11:42.263Z,101366.22
2022-12-27T22:14:08.857Z,101364.50
2022-12-27T22:16:37.876Z,101362.78
2022-12-27T22:19:12.523Z,101363.66
2022-12-27T22:21:40.898Z,101364.50
2022-12-27T22:24:10.629Z,101349.81
2022-12-27T22:26:37.614Z,101344.63
2022-12-27T22:29:05.304Z,101345.50
2022-12-27T22:31:38.034Z,101346.34
2022-12-27T22:34:05.463Z,101327.28
2022-12-27T22:36:32.000Z,101325.56
2022-12-27T22:38:59.437Z,101325.56
2022-12-27T22:41:28.456Z,101316.09
2022-12-27T22:43:56.250Z,101328.22
2022-12-27T22:46:23.554Z,101314.41
2022-12-27T22:48:51.537Z,101309.25
2022-12-27T22:51:27.241Z,101306.63
2022-12-27T22:53:56.014Z,101294.56
2022-12-27T22:56:30.948Z,101286.81
2022-12-27T22:58:58.239Z,101285.94
2022-12-27T23:01:30.332Z,101266.94
2022-12-27T23:03:58.749Z,101276.44
2022-12-27T23:06:26.011Z,101267.81
2022-12-27T23:08:53.225Z,101263.56
2022-12-27T23:11:24.261Z,101249.75
2022-12-27T23:13:56.385Z,101241.03
2022-12-27T23:16:23.147Z,101244.56
2022-12-27T23:18:49.800Z,101229.03
2022-12-27T23:21:21.165Z,101234.22
2022-12-27T23:23:51.716Z,101231.63
2022-12-27T23:26:21.259Z,101225.63
2022-12-27T23:28:49.270Z,101218.69
2022-12-27T23:31:16.341Z,101202.34
2022-12-27T23:33:43.638Z,101202.38
2022-12-27T23:36:10.990Z,101203.28
2022-12-27T23:38:37.381Z,101195.53
2022-12-27T23:41:06.162Z,101185.19
2022-12-27T23:43:52.144Z,101176.53
2022-12-27T23:46:27.583Z,101180.88
2022-12-27T23:48:55.063Z,101161.03
2022-12-27T23:51:22.464Z,101155.84
2022-12-27T23:53:49.068Z,101153.34
2022-12-27T23:56:17.557Z,101149.06
2022-12-27T23:58:44.579Z,101153.38
